sensor_id;sensor_type;location;lat;lon;timestamp;P1;durP1;ratioP1;P2;durP2;ratioP2
55146;SDS011;41039;49.830;23.988;2022-08-21T00:02:23;8.98;;;6.70;;
55146;SDS011;41039;49.830;23.988;2022-08-21T00:04:49;10.82;;;7.50;;
55146;SDS011;41039;49.830;23.988;2022-08-21T00:07:15;13.98;;;6.95;;
55146;SDS011;41039;49.830;23.988;2022-08-21T00:09:41;9.23;;;6.13;;
55146;SDS011;41039;49.830;23.988;2022-08-21T00:12:06;12.57;;;6.57;;
55146;SDS011;41039;49.830;23.988;2022-08-21T00:14:32;11.02;;;7.63;;
55146;SDS011;41039;49.830;23.988;2022-08-21T00:16:58;11.68;;;6.97;;
55146;SDS011;41039;49.830;23.988;2022-08-21T00:19:23;15.68;;;7.35;;
55146;SDS011;41039;49.830;23.988;2022-08-21T00:21:50;12.02;;;7.18;;
55146;SDS011;41039;49.830;23.988;2022-08-21T00:24:15;10.32;;;6.72;;
55146;SDS011;41039;49.830;23.988;2022-08-21T00:26:41;12.25;;;7.43;;
55146;SDS011;41039;49.830;23.988;2022-08-21T00:29:08;11.82;;;6.50;;
55146;SDS011;41039;49.830;23.988;2022-08-21T00:31:33;10.20;;;6.72;;
55146;SDS011;41039;49.830;23.988;2022-08-21T00:33:58;10.70;;;6.78;;
55146;SDS011;41039;49.830;23.988;2022-08-21T00:36:24;9.60;;;6.40;;
55146;SDS011;41039;49.830;23.988;2022-08-21T00:38:49;9.88;;;6.05;;
55146;SDS011;41039;49.830;23.988;2022-08-21T00:41:14;10.13;;;6.68;;
55146;SDS011;41039;49.830;23.988;2022-08-21T00:43:39;9.50;;;7.13;;
55146;SDS011;41039;49.830;23.988;2022-08-21T00:46:05;11.82;;;6.78;;
55146;SDS011;41039;49.830;23.988;2022-08-21T00:48:31;10.02;;;7.00;;
55146;SDS011;41039;49.830;23.988;2022-08-21T00:50:58;9.18;;;6.85;;
55146;SDS011;41039;49.830;23.988;2022-08-21T00:53:24;15.63;;;7.43;;
55146;SDS011;41039;49.830;23.988;2022-08-21T00:55:50;8.63;;;6.93;;
55146;SDS011;41039;49.830;23.988;2022-08-21T00:58:16;8.85;;;6.22;;
55146;SDS011;41039;49.830;23.988;2022-08-21T01:00:42;13.00;;;7.13;;
55146;SDS011;41039;49.830;23.988;2022-08-21T01:03:09;11.88;;;7.13;;
55146;SDS011;41039;49.830;23.988;2022-08-21T01:05:35;11.85;;;6.85;;
55146;SDS011;41039;49.830;23.988;2022-08-21T01:08:01;10.60;;;7.07;;
55146;SDS011;41039;49.830;23.988;2022-08-21T01:10:26;10.90;;;6.43;;
55146;SDS011;41039;49.830;23.988;2022-08-21T01:12:52;9.30;;;6.60;;
55146;SDS011;41039;49.830;23.988;2022-08-21T01:15:19;10.88;;;6.85;;
55146;SDS011;41039;49.830;23.988;2022-08-21T01:17:46;11.27;;;7.35;;
55146;SDS011;41039;49.830;23.988;2022-08-21T01:20:12;11.70;;;6.85;;
55146;SDS011;41039;49.830;23.988;2022-08-21T01:22:38;13.32;;;7.13;;
55146;SDS011;41039;49.830;23.988;2022-08-21T01:25:04;11.52;;;7.03;;
55146;SDS011;41039;49.830;23.988;2022-08-21T01:27:30;10.30;;;7.07;;
55146;SDS011;41039;49.830;23.988;2022-08-21T01:29:59;9.45;;;6.93;;
55146;SDS011;41039;49.830;23.988;2022-08-21T01:32:26;11.32;;;7.30;;
55146;SDS011;41039;49.830;23.988;2022-08-21T01:34:52;10.18;;;6.90;;
55146;SDS011;41039;49.830;23.988;2022-08-21T01:37:18;10.95;;;7.25;;
55146;SDS011;41039;49.830;23.988;2022-08-21T01:39:44;12.18;;;7.30;;
55146;SDS011;41039;49.830;23.988;2022-08-21T01:42:10;10.82;;;7.40;;
55146;SDS011;41039;49.830;23.988;2022-08-21T01:44:35;11.60;;;7.55;;
55146;SDS011;41039;49.830;23.988;2022-08-21T01:47:03;10.88;;;7.53;;
55146;SDS011;41039;49.830;23.988;2022-08-21T01:49:28;13.18;;;7.90;;
55146;SDS011;41039;49.830;23.988;2022-08-21T01:51:53;11.48;;;7.10;;
55146;SDS011;41039;49.830;23.988;2022-08-21T01:54:19;13.52;;;8.10;;
55146;SDS011;41039;49.830;23.988;2022-08-21T01:56:46;10.50;;;7.43;;
55146;SDS011;41039;49.830;23.988;2022-08-21T01:59:12;11.20;;;7.30;;
55146;SDS011;41039;49.830;23.988;2022-08-21T02:01:37;9.48;;;6.07;;
55146;SDS011;41039;49.830;23.988;2022-08-21T02:04:04;10.65;;;7.13;;
55146;SDS011;41039;49.830;23.988;2022-08-21T02:06:29;12.50;;;7.50;;
55146;SDS011;41039;49.830;23.988;2022-08-21T02:08:55;10.48;;;7.00;;
55146;SDS011;41039;49.830;23.988;2022-08-21T02:11:20;9.75;;;7.20;;
55146;SDS011;41039;49.830;23.988;2022-08-21T02:13:45;11.05;;;7.38;;
55146;SDS011;41039;49.830;23.988;2022-08-21T02:16:11;11.63;;;7.57;;
55146;SDS011;41039;49.830;23.988;2022-08-21T02:18:37;9.45;;;7.38;;
55146;SDS011;41039;49.830;23.988;2022-08-21T02:21:02;10.45;;;6.88;;
55146;SDS011;41039;49.830;23.988;2022-08-21T02:23:27;11.50;;;7.47;;
55146;SDS011;41039;49.830;23.988;2022-08-21T02:26:02;11.75;;;6.65;;
55146;SDS011;41039;49.830;23.988;2022-08-21T02:28:28;10.63;;;7.20;;
55146;SDS011;41039;49.830;23.988;2022-08-21T02:30:54;12.65;;;7.57;;
55146;SDS011;41039;49.830;23.988;2022-08-21T02:33:19;9.95;;;6.85;;
55146;SDS011;41039;49.830;23.988;2022-08-21T02:35:45;14.57;;;7.78;;
55146;SDS011;41039;49.830;23.988;2022-08-21T02:38:13;11.77;;;7.80;;
55146;SDS011;41039;49.830;23.988;2022-08-21T02:40:40;9.70;;;7.30;;
55146;SDS011;41039;49.830;23.988;2022-08-21T02:43:06;11.32;;;7.22;;
55146;SDS011;41039;49.830;23.988;2022-08-21T02:45:32;12.43;;;6.88;;
55146;SDS011;41039;49.830;23.988;2022-08-21T02:47:58;9.85;;;7.05;;
55146;SDS011;41039;49.830;23.988;2022-08-21T02:50:26;10.10;;;7.50;;
55146;SDS011;41039;49.830;23.988;2022-08-21T02:52:51;11.23;;;7.40;;
55146;SDS011;41039;49.830;23.988;2022-08-21T02:55:18;11.43;;;7.78;;
55146;SDS011;41039;49.830;23.988;2022-08-21T02:57:43;14.32;;;7.63;;
55146;SDS011;41039;49.830;23.988;2022-08-21T03:00:09;11.35;;;7.68;;
55146;SDS011;41039;49.830;23.988;2022-08-21T03:02:36;11.98;;;7.30;;
55146;SDS011;41039;49.830;23.988;2022-08-21T03:05:01;11.18;;;7.47;;
55146;SDS011;41039;49.830;23.988;2022-08-21T03:07:27;9.43;;;6.82;;
55146;SDS011;41039;49.830;23.988;2022-08-21T03:09:52;8.27;;;7.18;;
55146;SDS011;41039;49.830;23.988;2022-08-21T03:12:17;10.13;;;7.53;;
55146;SDS011;41039;49.830;23.988;2022-08-21T03:14:42;9.77;;;7.90;;
55146;SDS011;41039;49.830;23.988;2022-08-21T03:17:08;12.10;;;7.55;;
55146;SDS011;41039;49.830;23.988;2022-08-21T03:19:33;9.43;;;7.15;;
55146;SDS011;41039;49.830;23.988;2022-08-21T03:21:59;9.55;;;7.22;;
55146;SDS011;41039;49.830;23.988;2022-08-21T03:24:24;12.98;;;7.72;;
55146;SDS011;41039;49.830;23.988;2022-08-21T03:26:49;11.95;;;8.10;;
55146;SDS011;41039;49.830;23.988;2022-08-21T03:29:15;13.63;;;8.13;;
55146;SDS011;41039;49.830;23.988;2022-08-21T03:31:40;12.52;;;7.88;;
55146;SDS011;41039;49.830;23.988;2022-08-21T03:34:05;8.95;;;6.95;;
55146;SDS011;41039;49.830;23.988;2022-08-21T03:36:30;10.77;;;7.70;;
55146;SDS011;41039;49.830;23.988;2022-08-21T03:38:56;8.45;;;6.70;;
55146;SDS011;41039;49.830;23.988;2022-08-21T03:41:21;13.23;;;7.32;;
55146;SDS011;41039;49.830;23.988;2022-08-21T03:43:46;9.07;;;7.00;;
55146;SDS011;41039;49.830;23.988;2022-08-21T03:46:11;9.60;;;6.75;;
55146;SDS011;41039;49.830;23.988;2022-08-21T03:48:37;10.32;;;6.72;;
55146;SDS011;41039;49.830;23.988;2022-08-21T03:51:03;9.82;;;7.45;;
55146;SDS011;41039;49.830;23.988;2022-08-21T03:53:29;10.23;;;6.25;;
55146;SDS011;41039;49.830;23.988;2022-08-21T03:55:55;10.10;;;7.13;;
55146;SDS011;41039;49.830;23.988;2022-08-21T03:58:23;9.27;;;6.68;;
55146;SDS011;41039;49.830;23.988;2022-08-21T04:00:49;9.52;;;6.90;;
55146;SDS011;41039;49.830;23.988;2022-08-21T04:03:15;11.45;;;7.13;;
55146;SDS011;41039;49.830;23.988;2022-08-21T04:05:41;12.77;;;7.40;;
55146;SDS011;41039;49.830;23.988;2022-08-21T04:08:06;11.18;;;7.00;;
55146;SDS011;41039;49.830;23.988;2022-08-21T04:10:32;10.52;;;6.72;;
55146;SDS011;41039;49.830;23.988;2022-08-21T04:12:59;8.60;;;6.15;;
55146;SDS011;41039;49.830;23.988;2022-08-21T04:15:24;11.85;;;6.47;;
55146;SDS011;41039;49.830;23.988;2022-08-21T04:17:50;7.10;;;5.45;;
55146;SDS011;41039;49.830;23.988;2022-08-21T04:20:16;9.88;;;6.10;;
55146;SDS011;41039;49.830;23.988;2022-08-21T04:22:42;10.30;;;6.55;;
55146;SDS011;41039;49.830;23.988;2022-08-21T04:25:07;10.18;;;6.60;;
55146;SDS011;41039;49.830;23.988;2022-08-21T04:27:33;13.80;;;6.00;;
55146;SDS011;41039;49.830;23.988;2022-08-21T04:29:58;8.50;;;5.88;;
55146;SDS011;41039;49.830;23.988;2022-08-21T04:32:25;9.57;;;6.03;;
55146;SDS011;41039;49.830;23.988;2022-08-21T04:34:50;9.43;;;5.65;;
55146;SDS011;41039;49.830;23.988;2022-08-21T04:37:16;10.38;;;6.40;;
55146;SDS011;41039;49.830;23.988;2022-08-21T04:39:41;7.43;;;5.15;;
55146;SDS011;41039;49.830;23.988;2022-08-21T04:42:07;9.65;;;5.65;;
55146;SDS011;41039;49.830;23.988;2022-08-21T04:44:33;11.13;;;5.47;;
55146;SDS011;41039;49.830;23.988;2022-08-21T04:46:59;9.13;;;5.97;;
55146;SDS011;41039;49.830;23.988;2022-08-21T04:49:24;8.38;;;5.53;;
55146;SDS011;41039;49.830;23.988;2022-08-21T04:51:49;8.43;;;5.38;;
55146;SDS011;41039;49.830;23.988;2022-08-21T04:54:19;9.38;;;5.35;;
55146;SDS011;41039;49.830;23.988;2022-08-21T04:56:47;10.05;;;5.65;;
55146;SDS011;41039;49.830;23.988;2022-08-21T04:59:15;9.70;;;5.55;;
55146;SDS011;41039;49.830;23.988;2022-08-21T05:01:42;7.68;;;4.90;;
55146;SDS011;41039;49.830;23.988;2022-08-21T05:04:09;7.72;;;4.93;;
55146;SDS011;41039;49.830;23.988;2022-08-21T05:06:36;8.90;;;5.45;;
55146;SDS011;41039;49.830;23.988;2022-08-21T05:09:02;8.27;;;5.45;;
55146;SDS011;41039;49.830;23.988;2022-08-21T05:11:29;8.75;;;5.50;;
55146;SDS011;41039;49.830;23.988;2022-08-21T05:13:55;7.78;;;5.20;;
55146;SDS011;41039;49.830;23.988;2022-08-21T05:16:20;14.02;;;5.38;;
55146;SDS011;41039;49.830;23.988;2022-08-21T05:18:45;6.13;;;4.70;;
55146;SDS011;41039;49.830;23.988;2022-08-21T05:21:11;10.10;;;5.00;;
55146;SDS011;41039;49.830;23.988;2022-08-21T05:23:36;7.38;;;4.85;;
55146;SDS011;41039;49.830;23.988;2022-08-21T05:26:02;6.55;;;4.82;;
55146;SDS011;41039;49.830;23.988;2022-08-21T05:28:29;5.63;;;4.55;;
55146;SDS011;41039;49.830;23.988;2022-08-21T05:30:54;5.70;;;4.60;;
55146;SDS011;41039;49.830;23.988;2022-08-21T05:33:19;6.80;;;4.78;;
55146;SDS011;41039;49.830;23.988;2022-08-21T05:35:45;8.80;;;4.68;;
55146;SDS011;41039;49.830;23.988;2022-08-21T05:38:10;8.13;;;4.70;;
55146;SDS011;41039;49.830;23.988;2022-08-21T05:40:35;11.50;;;8.38;;
55146;SDS011;41039;49.830;23.988;2022-08-21T05:43:01;6.57;;;5.00;;
55146;SDS011;41039;49.830;23.988;2022-08-21T05:45:31;8.38;;;4.32;;
55146;SDS011;41039;49.830;23.988;2022-08-21T05:47:57;7.88;;;4.85;;
55146;SDS011;41039;49.830;23.988;2022-08-21T05:50:23;8.43;;;4.97;;
55146;SDS011;41039;49.830;23.988;2022-08-21T05:52:48;5.97;;;4.40;;
55146;SDS011;41039;49.830;23.988;2022-08-21T05:55:13;7.55;;;4.90;;
55146;SDS011;41039;49.830;23.988;2022-08-21T05:57:39;9.68;;;4.80;;
55146;SDS011;41039;49.830;23.988;2022-08-21T06:00:07;9.55;;;5.05;;
55146;SDS011;41039;49.830;23.988;2022-08-21T06:02:34;8.65;;;4.35;;
55146;SDS011;41039;49.830;23.988;2022-08-21T06:05:00;9.23;;;5.05;;
55146;SDS011;41039;49.830;23.988;2022-08-21T06:07:25;8.13;;;4.93;;
55146;SDS011;41039;49.830;23.988;2022-08-21T06:09:51;7.00;;;4.68;;
55146;SDS011;41039;49.830;23.988;2022-08-21T06:12:16;8.35;;;5.07;;
55146;SDS011;41039;49.830;23.988;2022-08-21T06:14:42;10.88;;;5.95;;
55146;SDS011;41039;49.830;23.988;2022-08-21T06:17:08;10.73;;;6.30;;
55146;SDS011;41039;49.830;23.988;2022-08-21T06:19:34;9.02;;;5.43;;
55146;SDS011;41039;49.830;23.988;2022-08-21T06:21:59;8.02;;;6.57;;
55146;SDS011;41039;49.830;23.988;2022-08-21T06:24:25;10.00;;;6.45;;
55146;SDS011;41039;49.830;23.988;2022-08-21T06:26:50;9.35;;;5.93;;
55146;SDS011;41039;49.830;23.988;2022-08-21T06:29:16;10.80;;;5.97;;
55146;SDS011;41039;49.830;23.988;2022-08-21T06:31:42;8.25;;;5.38;;
55146;SDS011;41039;49.830;23.988;2022-08-21T06:34:08;9.52;;;6.15;;
55146;SDS011;41039;49.830;23.988;2022-08-21T06:36:33;11.55;;;5.72;;
55146;SDS011;41039;49.830;23.988;2022-08-21T06:38:59;9.88;;;5.70;;
55146;SDS011;41039;49.830;23.988;2022-08-21T06:41:24;9.48;;;4.50;;
55146;SDS011;41039;49.830;23.988;2022-08-21T06:43:49;8.73;;;5.25;;
55146;SDS011;41039;49.830;23.988;2022-08-21T06:46:15;8.77;;;4.75;;
55146;SDS011;41039;49.830;23.988;2022-08-21T06:48:40;8.82;;;5.13;;
55146;SDS011;41039;49.830;23.988;2022-08-21T06:51:06;11.77;;;5.20;;
55146;SDS011;41039;49.830;23.988;2022-08-21T06:53:31;6.30;;;4.80;;
55146;SDS011;41039;49.830;23.988;2022-08-21T06:55:56;6.32;;;4.60;;
55146;SDS011;41039;49.830;23.988;2022-08-21T06:58:21;7.10;;;4.25;;
55146;SDS011;41039;49.830;23.988;2022-08-21T07:00:48;6.95;;;4.65;;
55146;SDS011;41039;49.830;23.988;2022-08-21T07:03:20;5.97;;;4.45;;
55146;SDS011;41039;49.830;23.988;2022-08-21T07:08:11;7.05;;;4.45;;
55146;SDS011;41039;49.830;23.988;2022-08-21T07:10:37;7.00;;;5.07;;
55146;SDS011;41039;49.830;23.988;2022-08-21T07:13:02;10.60;;;5.43;;
55146;SDS011;41039;49.830;23.988;2022-08-21T07:15:28;8.02;;;5.10;;
55146;SDS011;41039;49.830;23.988;2022-08-21T07:17:54;7.43;;;4.95;;
55146;SDS011;41039;49.830;23.988;2022-08-21T07:20:19;7.90;;;5.18;;
55146;SDS011;41039;49.830;23.988;2022-08-21T07:22:44;7.60;;;4.55;;
55146;SDS011;41039;49.830;23.988;2022-08-21T07:25:09;8.98;;;4.60;;
55146;SDS011;41039;49.830;23.988;2022-08-21T07:27:35;8.20;;;4.72;;
55146;SDS011;41039;49.830;23.988;2022-08-21T07:30:00;7.20;;;4.40;;
55146;SDS011;41039;49.830;23.988;2022-08-21T07:32:25;10.65;;;6.05;;
55146;SDS011;41039;49.830;23.988;2022-08-21T07:34:51;5.38;;;4.07;;
55146;SDS011;41039;49.830;23.988;2022-08-21T07:37:16;6.22;;;4.03;;
55146;SDS011;41039;49.830;23.988;2022-08-21T07:39:41;6.43;;;4.07;;
55146;SDS011;41039;49.830;23.988;2022-08-21T07:42:07;4.80;;;3.33;;
55146;SDS011;41039;49.830;23.988;2022-08-21T07:44:32;7.75;;;3.60;;
55146;SDS011;41039;49.830;23.988;2022-08-21T07:46:59;5.95;;;3.70;;
55146;SDS011;41039;49.830;23.988;2022-08-21T07:49:24;7.35;;;3.78;;
55146;SDS011;41039;49.830;23.988;2022-08-21T07:51:49;5.20;;;3.80;;
55146;SDS011;41039;49.830;23.988;2022-08-21T07:54:15;7.03;;;3.95;;
55146;SDS011;41039;49.830;23.988;2022-08-21T07:56:40;5.33;;;4.00;;
55146;SDS011;41039;49.830;23.988;2022-08-21T07:59:05;5.20;;;3.22;;
55146;SDS011;41039;49.830;23.988;2022-08-21T08:01:31;6.57;;;4.28;;
55146;SDS011;41039;49.830;23.988;2022-08-21T08:03:56;4.40;;;3.30;;
55146;SDS011;41039;49.830;23.988;2022-08-21T08:06:21;7.43;;;4.32;;
55146;SDS011;41039;49.830;23.988;2022-08-21T08:08:48;6.32;;;3.45;;
55146;SDS011;41039;49.830;23.988;2022-08-21T08:11:13;5.68;;;3.42;;
55146;SDS011;41039;49.830;23.988;2022-08-21T08:13:46;5.60;;;3.95;;
55146;SDS011;41039;49.830;23.988;2022-08-21T08:16:11;6.07;;;4.00;;
55146;SDS011;41039;49.830;23.988;2022-08-21T08:18:37;4.88;;;3.20;;
55146;SDS011;41039;49.830;23.988;2022-08-21T08:21:03;6.90;;;3.78;;
55146;SDS011;41039;49.830;23.988;2022-08-21T08:23:28;5.05;;;3.80;;
55146;SDS011;41039;49.830;23.988;2022-08-21T08:25:55;4.72;;;3.38;;
55146;SDS011;41039;49.830;23.988;2022-08-21T08:28:20;6.15;;;3.75;;
55146;SDS011;41039;49.830;23.988;2022-08-21T08:30:46;6.22;;;3.70;;
55146;SDS011;41039;49.830;23.988;2022-08-21T08:33:12;5.68;;;3.38;;
55146;SDS011;41039;49.830;23.988;2022-08-21T08:35:38;5.68;;;3.90;;
55146;SDS011;41039;49.830;23.988;2022-08-21T08:38:05;7.93;;;4.18;;
55146;SDS011;41039;49.830;23.988;2022-08-21T08:40:39;6.95;;;3.67;;
55146;SDS011;41039;49.830;23.988;2022-08-21T08:43:05;7.20;;;4.03;;
55146;SDS011;41039;49.830;23.988;2022-08-21T08:45:31;8.85;;;4.30;;
55146;SDS011;41039;49.830;23.988;2022-08-21T08:47:58;7.60;;;3.67;;
55146;SDS011;41039;49.830;23.988;2022-08-21T08:50:33;11.30;;;4.05;;
55146;SDS011;41039;49.830;23.988;2022-08-21T08:53:04;12.13;;;4.43;;
55146;SDS011;41039;49.830;23.988;2022-08-21T08:55:34;6.47;;;4.15;;
55146;SDS011;41039;49.830;23.988;2022-08-21T08:58:00;7.90;;;4.00;;
55146;SDS011;41039;49.830;23.988;2022-08-21T09:00:27;10.38;;;4.00;;
55146;SDS011;41039;49.830;23.988;2022-08-21T09:02:54;5.78;;;3.60;;
55146;SDS011;41039;49.830;23.988;2022-08-21T09:08:03;10.32;;;4.63;;
55146;SDS011;41039;49.830;23.988;2022-08-21T09:13:10;7.95;;;3.95;;
55146;SDS011;41039;49.830;23.988;2022-08-21T09:18:16;9.90;;;3.83;;
55146;SDS011;41039;49.830;23.988;2022-08-21T09:25:59;8.00;;;3.83;;
55146;SDS011;41039;49.830;23.988;2022-08-21T09:28:27;7.80;;;3.70;;
55146;SDS011;41039;49.830;23.988;2022-08-21T09:30:55;7.13;;;3.75;;
55146;SDS011;41039;49.830;23.988;2022-08-21T09:33:21;8.57;;;3.25;;
55146;SDS011;41039;49.830;23.988;2022-08-21T09:35:48;5.10;;;3.40;;
55146;SDS011;41039;49.830;23.988;2022-08-21T09:38:23;7.93;;;3.58;;
55146;SDS011;41039;49.830;23.988;2022-08-21T09:40:54;12.35;;;4.22;;
55146;SDS011;41039;49.830;23.988;2022-08-21T09:43:21;6.90;;;4.13;;
55146;SDS011;41039;49.830;23.988;2022-08-21T09:45:49;5.35;;;3.45;;
55146;SDS011;41039;49.830;23.988;2022-08-21T09:48:17;7.63;;;3.50;;
55146;SDS011;41039;49.830;23.988;2022-08-21T09:50:45;5.30;;;3.55;;
55146;SDS011;41039;49.830;23.988;2022-08-21T09:53:26;4.50;;;3.05;;
55146;SDS011;41039;49.830;23.988;2022-08-21T09:55:56;6.63;;;3.25;;
55146;SDS011;41039;49.830;23.988;2022-08-21T09:58:42;7.25;;;3.03;;
55146;SDS011;41039;49.830;23.988;2022-08-21T10:01:12;5.75;;;3.10;;
55146;SDS011;41039;49.830;23.988;2022-08-21T10:03:38;6.13;;;2.90;;
55146;SDS011;41039;49.830;23.988;2022-08-21T10:06:04;5.38;;;2.75;;
55146;SDS011;41039;49.830;23.988;2022-08-21T10:08:33;4.32;;;2.60;;
55146;SDS011;41039;49.830;23.988;2022-08-21T10:11:05;4.97;;;2.58;;
55146;SDS011;41039;49.830;23.988;2022-08-21T10:18:38;6.05;;;2.33;;
55146;SDS011;41039;49.830;23.988;2022-08-21T10:21:07;3.78;;;2.20;;
55146;SDS011;41039;49.830;23.988;2022-08-21T10:28:49;5.63;;;2.50;;
55146;SDS011;41039;49.830;23.988;2022-08-21T10:33:53;4.07;;;2.78;;
55146;SDS011;41039;49.830;23.988;2022-08-21T10:57:04;4.88;;;2.70;;
55146;SDS011;41039;49.830;23.988;2022-08-21T10:59:38;5.65;;;2.50;;
55146;SDS011;41039;49.830;23.988;2022-08-21T11:02:15;4.85;;;2.78;;
55146;SDS011;41039;49.830;23.988;2022-08-21T11:04:47;7.25;;;2.78;;
55146;SDS011;41039;49.830;23.988;2022-08-21T11:07:16;5.47;;;2.70;;
55146;SDS011;41039;49.830;23.988;2022-08-21T11:09:43;3.83;;;2.35;;
55146;SDS011;41039;49.830;23.988;2022-08-21T11:12:15;4.00;;;2.67;;
55146;SDS011;41039;49.830;23.988;2022-08-21T11:17:22;3.35;;;2.40;;
55146;SDS011;41039;49.830;23.988;2022-08-21T11:19:53;4.38;;;2.42;;
55146;SDS011;41039;49.830;23.988;2022-08-21T11:22:38;3.53;;;2.30;;
55146;SDS011;41039;49.830;23.988;2022-08-21T11:25:20;3.92;;;2.72;;
55146;SDS011;41039;49.830;23.988;2022-08-21T11:27:51;5.40;;;2.60;;
55146;SDS011;41039;49.830;23.988;2022-08-21T11:30:18;5.00;;;3.20;;
55146;SDS011;41039;49.830;23.988;2022-08-21T11:33:23;6.93;;;3.00;;
55146;SDS011;41039;49.830;23.988;2022-08-21T11:40:35;5.90;;;2.67;;
55146;SDS011;41039;49.830;23.988;2022-08-21T11:45:50;5.32;;;3.25;;
55146;SDS011;41039;49.830;23.988;2022-08-21T11:50:41;4.60;;;2.63;;
55146;SDS011;41039;49.830;23.988;2022-08-21T11:53:09;4.57;;;2.53;;
55146;SDS011;41039;49.830;23.988;2022-08-21T11:58:03;6.05;;;2.33;;
55146;SDS011;41039;49.830;23.988;2022-08-21T12:02:58;4.13;;;1.93;;
55146;SDS011;41039;49.830;23.988;2022-08-21T12:05:30;3.28;;;2.20;;
55146;SDS011;41039;49.830;23.988;2022-08-21T12:08:03;4.68;;;2.22;;
55146;SDS011;41039;49.830;23.988;2022-08-21T12:10:36;2.28;;;1.63;;
55146;SDS011;41039;49.830;23.988;2022-08-21T12:13:06;3.53;;;2.42;;
55146;SDS011;41039;49.830;23.988;2022-08-21T12:15:33;6.97;;;2.33;;
55146;SDS011;41039;49.830;23.988;2022-08-21T12:18:00;5.45;;;4.05;;
55146;SDS011;41039;49.830;23.988;2022-08-21T12:25:35;3.38;;;2.20;;
55146;SDS011;41039;49.830;23.988;2022-08-21T12:28:08;3.28;;;1.98;;
55146;SDS011;41039;49.830;23.988;2022-08-21T12:30:37;4.45;;;2.45;;
55146;SDS011;41039;49.830;23.988;2022-08-21T12:33:09;5.57;;;2.35;;
55146;SDS011;41039;49.830;23.988;2022-08-21T12:35:42;3.30;;;1.90;;
55146;SDS011;41039;49.830;23.988;2022-08-21T12:38:27;7.50;;;2.03;;
55146;SDS011;41039;49.830;23.988;2022-08-21T12:40:54;5.22;;;2.05;;
55146;SDS011;41039;49.830;23.988;2022-08-21T12:43:40;5.18;;;2.20;;
55146;SDS011;41039;49.830;23.988;2022-08-21T12:46:06;4.80;;;2.08;;
55146;SDS011;41039;49.830;23.988;2022-08-21T12:48:36;6.10;;;2.37;;
55146;SDS011;41039;49.830;23.988;2022-08-21T12:51:11;3.97;;;1.92;;
55146;SDS011;41039;49.830;23.988;2022-08-21T12:53:54;5.65;;;2.00;;
55146;SDS011;41039;49.830;23.988;2022-08-21T12:56:20;2.53;;;1.92;;
55146;SDS011;41039;49.830;23.988;2022-08-21T12:58:48;5.53;;;2.17;;
55146;SDS011;41039;49.830;23.988;2022-08-21T13:03:39;3.85;;;2.08;;
55146;SDS011;41039;49.830;23.988;2022-08-21T13:06:05;4.93;;;2.60;;
55146;SDS011;41039;49.830;23.988;2022-08-21T13:08:32;5.85;;;2.10;;
55146;SDS011;41039;49.830;23.988;2022-08-21T13:11:05;2.65;;;1.70;;
55146;SDS011;41039;49.830;23.988;2022-08-21T13:16:02;4.85;;;2.40;;
55146;SDS011;41039;49.830;23.988;2022-08-21T13:18:30;3.78;;;2.00;;
55146;SDS011;41039;49.830;23.988;2022-08-21T13:23:30;5.38;;;2.55;;
55146;SDS011;41039;49.830;23.988;2022-08-21T13:25:55;3.85;;;2.15;;
55146;SDS011;41039;49.830;23.988;2022-08-21T13:28:21;4.07;;;2.20;;
55146;SDS011;41039;49.830;23.988;2022-08-21T13:30:50;4.25;;;1.88;;
55146;SDS011;41039;49.830;23.988;2022-08-21T13:33:17;4.95;;;2.00;;
55146;SDS011;41039;49.830;23.988;2022-08-21T13:35:46;4.68;;;2.10;;
55146;SDS011;41039;49.830;23.988;2022-08-21T13:38:12;4.13;;;2.38;;
55146;SDS011;41039;49.830;23.988;2022-08-21T13:40:48;6.88;;;2.38;;
55146;SDS011;41039;49.830;23.988;2022-08-21T13:43:15;3.78;;;2.25;;
55146;SDS011;41039;49.830;23.988;2022-08-21T13:45:43;4.25;;;2.75;;
55146;SDS011;41039;49.830;23.988;2022-08-21T13:48:09;5.82;;;2.20;;
55146;SDS011;41039;49.830;23.988;2022-08-21T13:50:35;5.95;;;2.25;;
55146;SDS011;41039;49.830;23.988;2022-08-21T13:53:02;5.72;;;3.10;;
55146;SDS011;41039;49.830;23.988;2022-08-21T13:55:35;2.70;;;1.80;;
55146;SDS011;41039;49.830;23.988;2022-08-21T13:58:01;7.38;;;2.13;;
55146;SDS011;41039;49.830;23.988;2022-08-21T14:00:29;5.25;;;2.63;;
55146;SDS011;41039;49.830;23.988;2022-08-21T14:02:59;5.82;;;2.60;;
55146;SDS011;41039;49.830;23.988;2022-08-21T14:05:27;4.80;;;2.15;;
55146;SDS011;41039;49.830;23.988;2022-08-21T14:07:58;6.65;;;2.33;;
55146;SDS011;41039;49.830;23.988;2022-08-21T14:15:19;13.13;;;10.45;;
55146;SDS011;41039;49.830;23.988;2022-08-21T14:17:47;5.18;;;2.67;;
55146;SDS011;41039;49.830;23.988;2022-08-21T14:20:25;4.13;;;2.35;;
55146;SDS011;41039;49.830;23.988;2022-08-21T14:22:51;3.60;;;1.80;;
55146;SDS011;41039;49.830;23.988;2022-08-21T14:30:12;2.73;;;1.90;;
55146;SDS011;41039;49.830;23.988;2022-08-21T14:32:39;4.85;;;2.38;;
55146;SDS011;41039;49.830;23.988;2022-08-21T14:35:05;3.13;;;2.00;;
55146;SDS011;41039;49.830;23.988;2022-08-21T14:37:31;6.80;;;2.75;;
55146;SDS011;41039;49.830;23.988;2022-08-21T14:39:56;6.65;;;3.70;;
55146;SDS011;41039;49.830;23.988;2022-08-21T14:42:21;4.68;;;2.47;;
55146;SDS011;41039;49.830;23.988;2022-08-21T14:44:46;4.18;;;2.05;;
55146;SDS011;41039;49.830;23.988;2022-08-21T14:47:12;6.37;;;3.20;;
55146;SDS011;41039;49.830;23.988;2022-08-21T14:49:37;6.15;;;2.72;;
55146;SDS011;41039;49.830;23.988;2022-08-21T14:52:02;4.03;;;2.35;;
55146;SDS011;41039;49.830;23.988;2022-08-21T14:54:28;4.32;;;2.90;;
55146;SDS011;41039;49.830;23.988;2022-08-21T14:56:54;4.45;;;2.70;;
55146;SDS011;41039;49.830;23.988;2022-08-21T14:59:20;5.30;;;2.47;;
55146;SDS011;41039;49.830;23.988;2022-08-21T15:01:45;4.35;;;2.20;;
55146;SDS011;41039;49.830;23.988;2022-08-21T15:04:11;5.20;;;2.30;;
55146;SDS011;41039;49.830;23.988;2022-08-21T15:06:36;5.38;;;2.10;;
55146;SDS011;41039;49.830;23.988;2022-08-21T15:09:01;6.55;;;4.20;;
55146;SDS011;41039;49.830;23.988;2022-08-21T15:11:30;4.72;;;2.58;;
55146;SDS011;41039;49.830;23.988;2022-08-21T15:13:57;5.15;;;2.00;;
55146;SDS011;41039;49.830;23.988;2022-08-21T15:16:24;7.78;;;3.00;;
55146;SDS011;41039;49.830;23.988;2022-08-21T15:18:49;5.78;;;2.28;;
55146;SDS011;41039;49.830;23.988;2022-08-21T15:21:15;3.78;;;2.08;;
55146;SDS011;41039;49.830;23.988;2022-08-21T15:23:40;6.18;;;2.33;;
55146;SDS011;41039;49.830;23.988;2022-08-21T15:26:05;5.68;;;2.17;;
55146;SDS011;41039;49.830;23.988;2022-08-21T15:28:31;3.97;;;2.65;;
55146;SDS011;41039;49.830;23.988;2022-08-21T15:30:56;4.45;;;2.42;;
55146;SDS011;41039;49.830;23.988;2022-08-21T15:33:21;5.82;;;2.45;;
55146;SDS011;41039;49.830;23.988;2022-08-21T15:35:47;5.22;;;2.30;;
55146;SDS011;41039;49.830;23.988;2022-08-21T15:38:12;3.88;;;2.38;;
55146;SDS011;41039;49.830;23.988;2022-08-21T15:40:38;4.53;;;2.30;;
55146;SDS011;41039;49.830;23.988;2022-08-21T15:43:03;4.43;;;2.22;;
55146;SDS011;41039;49.830;23.988;2022-08-21T15:45:29;3.58;;;2.15;;
55146;SDS011;41039;49.830;23.988;2022-08-21T15:47:55;6.07;;;2.83;;
55146;SDS011;41039;49.830;23.988;2022-08-21T15:50:21;4.25;;;2.25;;
55146;SDS011;41039;49.830;23.988;2022-08-21T15:52:47;8.85;;;2.83;;
55146;SDS011;41039;49.830;23.988;2022-08-21T15:55:12;3.22;;;2.20;;
55146;SDS011;41039;49.830;23.988;2022-08-21T15:57:38;3.00;;;2.15;;
55146;SDS011;41039;49.830;23.988;2022-08-21T16:00:11;3.42;;;2.00;;